sensor_id;sensor_type;location;lat;lon;timestamp;P1;durP1;ratioP1;P2;durP2;ratioP2
16179;SDS011;8196;49.428;10.906;2022-08-19T00:00:07;17.20;;;15.52;;
16179;SDS011;8196;49.428;10.906;2022-08-19T00:02:35;17.27;;;15.55;;
16179;SDS011;8196;49.428;10.906;2022-08-19T00:05:15;17.58;;;15.82;;
16179;SDS011;8196;49.428;10.906;2022-08-19T00:07:42;17.95;;;16.13;;
16179;SDS011;8196;49.428;10.906;2022-08-19T00:10:11;19.13;;;17.33;;
16179;SDS011;8196;49.428;10.906;2022-08-19T00:12:39;16.88;;;15.27;;
16179;SDS011;8196;49.428;10.906;2022-08-19T00:15:13;17.33;;;15.68;;
16179;SDS011;8196;49.428;10.906;2022-08-19T00:17:42;16.08;;;14.48;;
16179;SDS011;8196;49.428;10.906;2022-08-19T00:20:10;17.13;;;15.43;;
16179;SDS011;8196;49.428;10.906;2022-08-19T00:22:38;17.17;;;15.43;;
16179;SDS011;8196;49.428;10.906;2022-08-19T00:25:07;17.50;;;15.75;;
16179;SDS011;8196;49.428;10.906;2022-08-19T00:27:35;17.27;;;15.57;;
16179;SDS011;8196;49.428;10.906;2022-08-19T00:30:03;17.75;;;15.85;;
16179;SDS011;8196;49.428;10.906;2022-08-19T00:32:30;17.23;;;15.45;;
16179;SDS011;8196;49.428;10.906;2022-08-19T00:34:59;17.20;;;15.60;;
16179;SDS011;8196;49.428;10.906;2022-08-19T00:37:26;17.35;;;15.73;;
16179;SDS011;8196;49.428;10.906;2022-08-19T00:39:54;17.98;;;16.25;;
16179;SDS011;8196;49.428;10.906;2022-08-19T00:42:22;16.90;;;15.25;;
16179;SDS011;8196;49.428;10.906;2022-08-19T00:44:49;18.25;;;16.33;;
16179;SDS011;8196;49.428;10.906;2022-08-19T00:47:16;18.65;;;16.75;;
16179;SDS011;8196;49.428;10.906;2022-08-19T00:49:45;17.27;;;15.57;;
16179;SDS011;8196;49.428;10.906;2022-08-19T00:52:20;18.75;;;16.27;;
16179;SDS011;8196;49.428;10.906;2022-08-19T00:54:48;17.63;;;15.82;;
16179;SDS011;8196;49.428;10.906;2022-08-19T00:57:18;18.92;;;17.00;;
16179;SDS011;8196;49.428;10.906;2022-08-19T00:59:51;17.98;;;16.27;;
16179;SDS011;8196;49.428;10.906;2022-08-19T01:02:28;17.48;;;15.77;;
16179;SDS011;8196;49.428;10.906;2022-08-19T01:04:56;17.25;;;15.65;;
16179;SDS011;8196;49.428;10.906;2022-08-19T01:07:23;18.42;;;16.30;;
16179;SDS011;8196;49.428;10.906;2022-08-19T01:09:51;17.77;;;15.98;;
16179;SDS011;8196;49.428;10.906;2022-08-19T01:12:18;18.27;;;16.58;;
16179;SDS011;8196;49.428;10.906;2022-08-19T01:14:45;17.73;;;16.02;;
16179;SDS011;8196;49.428;10.906;2022-08-19T01:17:12;17.17;;;15.48;;
16179;SDS011;8196;49.428;10.906;2022-08-19T01:19:41;18.42;;;16.73;;
16179;SDS011;8196;49.428;10.906;2022-08-19T01:22:12;17.52;;;15.68;;
16179;SDS011;8196;49.428;10.906;2022-08-19T01:24:42;17.52;;;15.82;;
16179;SDS011;8196;49.428;10.906;2022-08-19T01:27:15;18.55;;;16.65;;
16179;SDS011;8196;49.428;10.906;2022-08-19T01:29:43;18.45;;;16.55;;
16179;SDS011;8196;49.428;10.906;2022-08-19T01:32:12;18.50;;;16.60;;
16179;SDS011;8196;49.428;10.906;2022-08-19T01:34:58;19.45;;;17.38;;
16179;SDS011;8196;49.428;10.906;2022-08-19T01:37:28;18.73;;;16.90;;
16179;SDS011;8196;49.428;10.906;2022-08-19T01:39:56;18.88;;;17.02;;
16179;SDS011;8196;49.428;10.906;2022-08-19T01:42:24;20.45;;;18.35;;
16179;SDS011;8196;49.428;10.906;2022-08-19T01:44:55;20.13;;;18.23;;
16179;SDS011;8196;49.428;10.906;2022-08-19T01:47:23;20.70;;;18.60;;
16179;SDS011;8196;49.428;10.906;2022-08-19T01:49:50;21.70;;;19.40;;
16179;SDS011;8196;49.428;10.906;2022-08-19T01:52:17;20.77;;;18.83;;
16179;SDS011;8196;49.428;10.906;2022-08-19T01:54:44;21.70;;;19.40;;
16179;SDS011;8196;49.428;10.906;2022-08-19T01:57:12;21.85;;;19.50;;
16179;SDS011;8196;49.428;10.906;2022-08-19T01:59:40;22.25;;;19.85;;
16179;SDS011;8196;49.428;10.906;2022-08-19T02:02:07;21.30;;;19.00;;
16179;SDS011;8196;49.428;10.906;2022-08-19T02:04:35;22.30;;;20.00;;
16179;SDS011;8196;49.428;10.906;2022-08-19T02:07:04;21.77;;;19.50;;
16179;SDS011;8196;49.428;10.906;2022-08-19T02:09:31;22.30;;;19.98;;
16179;SDS011;8196;49.428;10.906;2022-08-19T02:11:58;22.45;;;20.10;;
16179;SDS011;8196;49.428;10.906;2022-08-19T02:14:25;22.02;;;19.83;;
16179;SDS011;8196;49.428;10.906;2022-08-19T02:16:53;22.70;;;20.27;;
16179;SDS011;8196;49.428;10.906;2022-08-19T02:19:20;22.90;;;20.40;;
16179;SDS011;8196;49.428;10.906;2022-08-19T02:21:47;22.45;;;19.77;;
16179;SDS011;8196;49.428;10.906;2022-08-19T02:24:14;21.42;;;19.30;;
16179;SDS011;8196;49.428;10.906;2022-08-19T02:26:41;20.75;;;18.67;;
16179;SDS011;8196;49.428;10.906;2022-08-19T02:29:08;21.73;;;19.48;;
16179;SDS011;8196;49.428;10.906;2022-08-19T02:31:35;19.77;;;17.77;;
16179;SDS011;8196;49.428;10.906;2022-08-19T02:34:03;21.02;;;18.92;;
16179;SDS011;8196;49.428;10.906;2022-08-19T02:36:30;18.88;;;16.98;;
16179;SDS011;8196;49.428;10.906;2022-08-19T02:38:58;20.60;;;18.50;;
16179;SDS011;8196;49.428;10.906;2022-08-19T02:41:27;21.35;;;19.15;;
16179;SDS011;8196;49.428;10.906;2022-08-19T02:43:54;20.58;;;18.38;;
16179;SDS011;8196;49.428;10.906;2022-08-19T02:46:44;20.05;;;17.90;;
16179;SDS011;8196;49.428;10.906;2022-08-19T02:49:12;19.75;;;17.80;;
16179;SDS011;8196;49.428;10.906;2022-08-19T02:51:42;19.38;;;17.20;;
16179;SDS011;8196;49.428;10.906;2022-08-19T02:54:10;21.45;;;18.70;;
16179;SDS011;8196;49.428;10.906;2022-08-19T02:56:39;20.38;;;17.83;;
16179;SDS011;8196;49.428;10.906;2022-08-19T02:59:07;19.63;;;17.63;;
16179;SDS011;8196;49.428;10.906;2022-08-19T03:01:36;20.77;;;17.80;;
16179;SDS011;8196;49.428;10.906;2022-08-19T03:04:07;19.88;;;17.85;;
16179;SDS011;8196;49.428;10.906;2022-08-19T03:06:36;18.98;;;17.08;;
16179;SDS011;8196;49.428;10.906;2022-08-19T03:09:03;21.52;;;19.33;;
16179;SDS011;8196;49.428;10.906;2022-08-19T03:11:31;21.38;;;18.95;;
16179;SDS011;8196;49.428;10.906;2022-08-19T03:13:58;21.75;;;18.88;;
16179;SDS011;8196;49.428;10.906;2022-08-19T03:16:27;20.40;;;18.27;;
16179;SDS011;8196;49.428;10.906;2022-08-19T03:18:58;21.58;;;19.30;;
16179;SDS011;8196;49.428;10.906;2022-08-19T03:21:27;21.77;;;19.38;;
16179;SDS011;8196;49.428;10.906;2022-08-19T03:23:55;21.10;;;18.98;;
16179;SDS011;8196;49.428;10.906;2022-08-19T03:26:23;23.05;;;19.27;;
16179;SDS011;8196;49.428;10.906;2022-08-19T03:28:50;21.10;;;18.85;;
16179;SDS011;8196;49.428;10.906;2022-08-19T03:31:24;21.50;;;19.17;;
16179;SDS011;8196;49.428;10.906;2022-08-19T03:34:13;21.65;;;19.33;;
16179;SDS011;8196;49.428;10.906;2022-08-19T03:36:41;21.45;;;19.08;;
16179;SDS011;8196;49.428;10.906;2022-08-19T03:39:08;22.77;;;20.48;;
16179;SDS011;8196;49.428;10.906;2022-08-19T03:41:37;22.20;;;19.83;;
16179;SDS011;8196;49.428;10.906;2022-08-19T03:44:11;21.75;;;19.15;;
16179;SDS011;8196;49.428;10.906;2022-08-19T03:46:44;22.08;;;19.50;;
16179;SDS011;8196;49.428;10.906;2022-08-19T03:49:11;22.27;;;19.80;;
16179;SDS011;8196;49.428;10.906;2022-08-19T03:51:40;21.88;;;19.50;;
16179;SDS011;8196;49.428;10.906;2022-08-19T03:54:08;24.65;;;20.17;;
16179;SDS011;8196;49.428;10.906;2022-08-19T03:56:36;23.50;;;19.40;;
16179;SDS011;8196;49.428;10.906;2022-08-19T03:59:04;22.60;;;19.45;;
16179;SDS011;8196;49.428;10.906;2022-08-19T04:01:32;24.38;;;20.67;;
16179;SDS011;8196;49.428;10.906;2022-08-19T04:04:01;21.50;;;18.55;;
16179;SDS011;8196;49.428;10.906;2022-08-19T04:06:31;22.92;;;20.45;;
16179;SDS011;8196;49.428;10.906;2022-08-19T04:08:59;22.20;;;19.58;;
16179;SDS011;8196;49.428;10.906;2022-08-19T04:11:28;22.80;;;19.83;;
16179;SDS011;8196;49.428;10.906;2022-08-19T04:14:10;23.20;;;20.38;;
16179;SDS011;8196;49.428;10.906;2022-08-19T04:16:37;24.65;;;20.80;;
16179;SDS011;8196;49.428;10.906;2022-08-19T04:19:04;25.02;;;20.17;;
16179;SDS011;8196;49.428;10.906;2022-08-19T04:21:32;21.98;;;19.65;;
16179;SDS011;8196;49.428;10.906;2022-08-19T04:24:00;23.27;;;20.77;;
16179;SDS011;8196;49.428;10.906;2022-08-19T04:26:30;22.45;;;19.30;;
16179;SDS011;8196;49.428;10.906;2022-08-19T04:28:58;21.90;;;19.60;;
16179;SDS011;8196;49.428;10.906;2022-08-19T04:31:27;24.42;;;20.58;;
16179;SDS011;8196;49.428;10.906;2022-08-19T04:33:56;25.13;;;21.45;;
16179;SDS011;8196;49.428;10.906;2022-08-19T04:36:25;22.88;;;19.88;;
16179;SDS011;8196;49.428;10.906;2022-08-19T04:38:55;22.10;;;19.65;;
16179;SDS011;8196;49.428;10.906;2022-08-19T04:41:22;21.23;;;19.00;;
16179;SDS011;8196;49.428;10.906;2022-08-19T04:44:10;25.02;;;19.67;;
16179;SDS011;8196;49.428;10.906;2022-08-19T04:46:38;24.83;;;20.73;;
16179;SDS011;8196;49.428;10.906;2022-08-19T04:49:17;22.25;;;19.95;;
16179;SDS011;8196;49.428;10.906;2022-08-19T04:51:45;24.00;;;20.50;;
16179;SDS011;8196;49.428;10.906;2022-08-19T04:54:14;21.40;;;19.15;;
16179;SDS011;8196;49.428;10.906;2022-08-19T04:56:58;23.80;;;19.35;;
16179;SDS011;8196;49.428;10.906;2022-08-19T04:59:26;23.38;;;19.02;;
16179;SDS011;8196;49.428;10.906;2022-08-19T05:01:53;25.58;;;20.48;;
16179;SDS011;8196;49.428;10.906;2022-08-19T05:04:20;21.17;;;18.88;;
16179;SDS011;8196;49.428;10.906;2022-08-19T05:06:48;22.40;;;19.67;;
16179;SDS011;8196;49.428;10.906;2022-08-19T05:09:15;22.55;;;20.23;;
16179;SDS011;8196;49.428;10.906;2022-08-19T05:11:43;26.10;;;21.67;;
16179;SDS011;8196;49.428;10.906;2022-08-19T05:14:11;24.45;;;20.05;;
16179;SDS011;8196;49.428;10.906;2022-08-19T05:16:39;21.13;;;18.90;;
16179;SDS011;8196;49.428;10.906;2022-08-19T05:19:06;23.35;;;20.50;;
16179;SDS011;8196;49.428;10.906;2022-08-19T05:21:53;23.23;;;19.60;;
16179;SDS011;8196;49.428;10.906;2022-08-19T05:24:40;22.08;;;18.52;;
16179;SDS011;8196;49.428;10.906;2022-08-19T05:27:27;22.88;;;19.83;;
16179;SDS011;8196;49.428;10.906;2022-08-19T05:29:55;24.13;;;20.30;;
16179;SDS011;8196;49.428;10.906;2022-08-19T05:32:22;21.77;;;19.48;;
16179;SDS011;8196;49.428;10.906;2022-08-19T05:34:49;25.50;;;19.48;;
16179;SDS011;8196;49.428;10.906;2022-08-19T05:37:16;22.60;;;19.88;;
16179;SDS011;8196;49.428;10.906;2022-08-19T05:39:43;22.63;;;19.98;;
16179;SDS011;8196;49.428;10.906;2022-08-19T05:42:16;24.00;;;20.20;;
16179;SDS011;8196;49.428;10.906;2022-08-19T05:44:46;22.25;;;19.67;;
16179;SDS011;8196;49.428;10.906;2022-08-19T05:47:15;22.73;;;19.35;;
16179;SDS011;8196;49.428;10.906;2022-08-19T05:49:42;23.13;;;19.55;;
16179;SDS011;8196;49.428;10.906;2022-08-19T05:52:10;21.88;;;19.20;;
16179;SDS011;8196;49.428;10.906;2022-08-19T05:54:39;20.92;;;18.10;;
16179;SDS011;8196;49.428;10.906;2022-08-19T05:57:08;20.73;;;18.25;;
16179;SDS011;8196;49.428;10.906;2022-08-19T05:59:38;22.10;;;19.25;;
16179;SDS011;8196;49.428;10.906;2022-08-19T06:02:05;20.33;;;18.20;;
16179;SDS011;8196;49.428;10.906;2022-08-19T06:04:33;21.58;;;19.27;;
16179;SDS011;8196;49.428;10.906;2022-08-19T06:07:00;22.35;;;18.75;;
16179;SDS011;8196;49.428;10.906;2022-08-19T06:09:38;21.90;;;19.60;;
16179;SDS011;8196;49.428;10.906;2022-08-19T06:12:05;20.70;;;18.23;;
16179;SDS011;8196;49.428;10.906;2022-08-19T06:14:33;21.98;;;18.40;;
16179;SDS011;8196;49.428;10.906;2022-08-19T06:17:07;21.73;;;17.42;;
16179;SDS011;8196;49.428;10.906;2022-08-19T06:19:34;20.45;;;17.85;;
16179;SDS011;8196;49.428;10.906;2022-08-19T06:22:06;19.58;;;17.23;;
16179;SDS011;8196;49.428;10.906;2022-08-19T06:24:33;22.27;;;17.98;;
16179;SDS011;8196;49.428;10.906;2022-08-19T06:27:01;19.38;;;17.08;;
16179;SDS011;8196;49.428;10.906;2022-08-19T06:29:28;18.25;;;16.35;;
16179;SDS011;8196;49.428;10.906;2022-08-19T06:31:57;18.88;;;16.88;;
16179;SDS011;8196;49.428;10.906;2022-08-19T06:34:26;17.50;;;15.73;;
16179;SDS011;8196;49.428;10.906;2022-08-19T06:36:54;17.92;;;15.88;;
16179;SDS011;8196;49.428;10.906;2022-08-19T06:39:23;19.88;;;15.48;;
16179;SDS011;8196;49.428;10.906;2022-08-19T06:41:52;17.58;;;15.40;;
16179;SDS011;8196;49.428;10.906;2022-08-19T06:44:25;16.02;;;14.18;;
16179;SDS011;8196;49.428;10.906;2022-08-19T06:46:53;15.90;;;14.13;;
16179;SDS011;8196;49.428;10.906;2022-08-19T06:49:21;15.27;;;13.73;;
16179;SDS011;8196;49.428;10.906;2022-08-19T06:51:48;13.23;;;11.80;;
16179;SDS011;8196;49.428;10.906;2022-08-19T06:54:17;15.02;;;12.40;;
16179;SDS011;8196;49.428;10.906;2022-08-19T06:56:45;14.43;;;12.93;;
16179;SDS011;8196;49.428;10.906;2022-08-19T06:59:14;14.70;;;13.20;;
16179;SDS011;8196;49.428;10.906;2022-08-19T07:01:43;15.60;;;13.98;;
16179;SDS011;8196;49.428;10.906;2022-08-19T07:04:14;14.93;;;12.93;;
16179;SDS011;8196;49.428;10.906;2022-08-19T07:06:42;14.88;;;13.48;;
16179;SDS011;8196;49.428;10.906;2022-08-19T07:09:11;15.35;;;12.85;;
16179;SDS011;8196;49.428;10.906;2022-08-19T07:11:38;15.85;;;14.25;;
16179;SDS011;8196;49.428;10.906;2022-08-19T07:14:09;15.23;;;13.73;;
16179;SDS011;8196;49.428;10.906;2022-08-19T07:16:45;15.77;;;13.77;;
16179;SDS011;8196;49.428;10.906;2022-08-19T07:19:12;14.98;;;13.40;;
16179;SDS011;8196;49.428;10.906;2022-08-19T07:21:44;14.60;;;13.02;;
16179;SDS011;8196;49.428;10.906;2022-08-19T07:24:11;16.15;;;14.10;;
16179;SDS011;8196;49.428;10.906;2022-08-19T07:26:41;15.30;;;13.80;;
16179;SDS011;8196;49.428;10.906;2022-08-19T07:29:09;14.52;;;13.02;;
16179;SDS011;8196;49.428;10.906;2022-08-19T07:31:38;14.75;;;13.23;;
16179;SDS011;8196;49.428;10.906;2022-08-19T07:34:09;14.15;;;12.75;;
16179;SDS011;8196;49.428;10.906;2022-08-19T07:36:38;14.85;;;13.30;;
16179;SDS011;8196;49.428;10.906;2022-08-19T07:39:08;15.85;;;13.00;;
16179;SDS011;8196;49.428;10.906;2022-08-19T07:41:36;14.43;;;12.80;;
16179;SDS011;8196;49.428;10.906;2022-08-19T07:44:04;13.15;;;11.95;;
16179;SDS011;8196;49.428;10.906;2022-08-19T07:46:35;14.65;;;13.15;;
16179;SDS011;8196;49.428;10.906;2022-08-19T07:49:04;15.38;;;13.75;;
16179;SDS011;8196;49.428;10.906;2022-08-19T07:51:32;16.35;;;14.60;;
16179;SDS011;8196;49.428;10.906;2022-08-19T07:54:02;17.48;;;15.15;;
16179;SDS011;8196;49.428;10.906;2022-08-19T07:56:29;15.70;;;14.07;;
16179;SDS011;8196;49.428;10.906;2022-08-19T07:58:56;17.30;;;15.48;;
16179;SDS011;8196;49.428;10.906;2022-08-19T08:01:24;18.10;;;16.23;;
16179;SDS011;8196;49.428;10.906;2022-08-19T08:03:52;18.52;;;16.58;;
16179;SDS011;8196;49.428;10.906;2022-08-19T08:06:39;18.75;;;16.75;;
16179;SDS011;8196;49.428;10.906;2022-08-19T08:09:29;17.67;;;15.88;;
16179;SDS011;8196;49.428;10.906;2022-08-19T08:12:00;18.25;;;16.10;;
16179;SDS011;8196;49.428;10.906;2022-08-19T08:14:48;21.42;;;17.77;;
16179;SDS011;8196;49.428;10.906;2022-08-19T08:17:22;17.65;;;15.75;;
16179;SDS011;8196;49.428;10.906;2022-08-19T08:20:09;19.90;;;17.13;;
16179;SDS011;8196;49.428;10.906;2022-08-19T08:22:37;20.75;;;17.15;;
16179;SDS011;8196;49.428;10.906;2022-08-19T08:25:26;18.75;;;16.30;;
16179;SDS011;8196;49.428;10.906;2022-08-19T08:27:57;18.33;;;16.15;;
16179;SDS011;8196;49.428;10.906;2022-08-19T08:30:26;18.08;;;16.15;;
16179;SDS011;8196;49.428;10.906;2022-08-19T08:32:58;17.40;;;15.02;;
16179;SDS011;8196;49.428;10.906;2022-08-19T08:35:27;19.13;;;15.45;;
16179;SDS011;8196;49.428;10.906;2022-08-19T08:37:54;18.98;;;15.63;;
16179;SDS011;8196;49.428;10.906;2022-08-19T08:42:53;15.88;;;14.18;;
16179;SDS011;8196;49.428;10.906;2022-08-19T08:45:32;16.20;;;14.48;;
16179;SDS011;8196;49.428;10.906;2022-08-19T08:48:13;16.83;;;14.57;;
16179;SDS011;8196;49.428;10.906;2022-08-19T08:50:47;16.70;;;14.38;;
16179;SDS011;8196;49.428;10.906;2022-08-19T08:53:18;15.15;;;13.27;;
16179;SDS011;8196;49.428;10.906;2022-08-19T08:55:55;14.25;;;12.65;;
16179;SDS011;8196;49.428;10.906;2022-08-19T08:58:27;15.23;;;13.73;;
16179;SDS011;8196;49.428;10.906;2022-08-19T09:00:56;15.50;;;13.90;;
16179;SDS011;8196;49.428;10.906;2022-08-19T09:03:25;14.38;;;12.90;;
16179;SDS011;8196;49.428;10.906;2022-08-19T09:11:15;14.70;;;13.18;;
16179;SDS011;8196;49.428;10.906;2022-08-19T09:14:09;13.23;;;11.82;;
16179;SDS011;8196;49.428;10.906;2022-08-19T09:16:58;13.23;;;11.82;;
16179;SDS011;8196;49.428;10.906;2022-08-19T09:19:26;15.40;;;13.82;;
16179;SDS011;8196;49.428;10.906;2022-08-19T09:21:54;15.98;;;14.07;;
16179;SDS011;8196;49.428;10.906;2022-08-19T09:24:22;17.05;;;15.25;;
16179;SDS011;8196;49.428;10.906;2022-08-19T09:26:56;16.25;;;13.23;;
16179;SDS011;8196;49.428;10.906;2022-08-19T09:29:23;16.52;;;14.00;;
16179;SDS011;8196;49.428;10.906;2022-08-19T09:31:50;15.45;;;13.85;;
16179;SDS011;8196;49.428;10.906;2022-08-19T09:34:18;17.20;;;14.30;;
16179;SDS011;8196;49.428;10.906;2022-08-19T09:36:47;16.98;;;15.18;;
16179;SDS011;8196;49.428;10.906;2022-08-19T09:39:16;16.02;;;14.32;;
16179;SDS011;8196;49.428;10.906;2022-08-19T09:41:43;17.17;;;14.55;;
16179;SDS011;8196;49.428;10.906;2022-08-19T09:44:14;18.63;;;15.27;;
16179;SDS011;8196;49.428;10.906;2022-08-19T09:46:43;16.52;;;14.82;;
16179;SDS011;8196;49.428;10.906;2022-08-19T09:49:13;16.20;;;14.60;;
16179;SDS011;8196;49.428;10.906;2022-08-19T09:51:40;16.13;;;14.43;;
16179;SDS011;8196;49.428;10.906;2022-08-19T09:54:08;16.67;;;14.95;;
16179;SDS011;8196;49.428;10.906;2022-08-19T09:56:36;16.83;;;15.02;;
16179;SDS011;8196;49.428;10.906;2022-08-19T09:59:07;18.88;;;15.30;;
16179;SDS011;8196;49.428;10.906;2022-08-19T10:01:35;15.80;;;14.23;;
16179;SDS011;8196;49.428;10.906;2022-08-19T10:04:02;18.13;;;14.35;;
16179;SDS011;8196;49.428;10.906;2022-08-19T10:06:45;18.33;;;15.18;;
16179;SDS011;8196;49.428;10.906;2022-08-19T10:09:18;16.45;;;14.75;;
16179;SDS011;8196;49.428;10.906;2022-08-19T10:12:00;16.00;;;14.27;;
16179;SDS011;8196;49.428;10.906;2022-08-19T10:14:27;17.60;;;14.20;;
16179;SDS011;8196;49.428;10.906;2022-08-19T10:16:55;17.58;;;15.45;;
16179;SDS011;8196;49.428;10.906;2022-08-19T10:19:24;15.75;;;14.10;;
16179;SDS011;8196;49.428;10.906;2022-08-19T10:21:52;15.38;;;13.43;;
16179;SDS011;8196;49.428;10.906;2022-08-19T10:24:25;15.82;;;13.55;;
16179;SDS011;8196;49.428;10.906;2022-08-19T10:26:54;18.92;;;14.80;;
16179;SDS011;8196;49.428;10.906;2022-08-19T10:29:25;15.02;;;13.50;;
16179;SDS011;8196;49.428;10.906;2022-08-19T10:31:59;13.95;;;12.65;;
16179;SDS011;8196;49.428;10.906;2022-08-19T10:34:28;50.67;;;45.35;;
16179;SDS011;8196;49.428;10.906;2022-08-19T10:36:56;70.72;;;64.05;;
16179;SDS011;8196;49.428;10.906;2022-08-19T10:41:56;17.77;;;15.10;;
16179;SDS011;8196;49.428;10.906;2022-08-19T10:44:23;33.05;;;25.65;;
16179;SDS011;8196;49.428;10.906;2022-08-19T10:46:58;18.98;;;15.93;;
16179;SDS011;8196;49.428;10.906;2022-08-19T10:49:25;17.67;;;15.00;;
16179;SDS011;8196;49.428;10.906;2022-08-19T10:51:53;15.63;;;13.75;;
16179;SDS011;8196;49.428;10.906;2022-08-19T10:54:46;15.07;;;13.40;;
16179;SDS011;8196;49.428;10.906;2022-08-19T10:57:34;15.35;;;13.77;;
16179;SDS011;8196;49.428;10.906;2022-08-19T11:00:21;16.27;;;12.85;;
16179;SDS011;8196;49.428;10.906;2022-08-19T11:02:49;14.32;;;12.93;;
16179;SDS011;8196;49.428;10.906;2022-08-19T11:05:16;13.68;;;12.38;;
16179;SDS011;8196;49.428;10.906;2022-08-19T11:07:43;15.20;;;13.57;;
16179;SDS011;8196;49.428;10.906;2022-08-19T11:10:13;15.32;;;12.90;;
16179;SDS011;8196;49.428;10.906;2022-08-19T11:12:46;14.93;;;12.60;;
16179;SDS011;8196;49.428;10.906;2022-08-19T11:15:14;18.48;;;15.25;;
16179;SDS011;8196;49.428;10.906;2022-08-19T11:17:41;15.80;;;14.20;;
16179;SDS011;8196;49.428;10.906;2022-08-19T11:20:11;13.60;;;12.18;;
16179;SDS011;8196;49.428;10.906;2022-08-19T11:22:38;15.18;;;13.68;;
16179;SDS011;8196;49.428;10.906;2022-08-19T11:25:08;15.70;;;14.10;;
16179;SDS011;8196;49.428;10.906;2022-08-19T11:27:37;13.75;;;12.35;;
16179;SDS011;8196;49.428;10.906;2022-08-19T11:30:09;13.80;;;12.43;;
16179;SDS011;8196;49.428;10.906;2022-08-19T11:32:39;14.48;;;12.98;;
16179;SDS011;8196;49.428;10.906;2022-08-19T11:35:10;16.48;;;13.70;;
16179;SDS011;8196;49.428;10.906;2022-08-19T11:37:38;14.98;;;13.38;;
16179;SDS011;8196;49.428;10.906;2022-08-19T11:40:06;14.95;;;13.02;;
16179;SDS011;8196;49.428;10.906;2022-08-19T11:42:33;14.32;;;12.90;;
16179;SDS011;8196;49.428;10.906;2022-08-19T11:45:20;14.68;;;13.38;;
16179;SDS011;8196;49.428;10.906;2022-08-19T11:47:48;15.80;;;13.45;;
16179;SDS011;8196;49.428;10.906;2022-08-19T11:50:15;14.02;;;12.68;;
16179;SDS011;8196;49.428;10.906;2022-08-19T11:52:43;14.70;;;13.18;;
16179;SDS011;8196;49.428;10.906;2022-08-19T11:55:11;15.45;;;12.70;;
16179;SDS011;8196;49.428;10.906;2022-08-19T11:57:39;14.57;;;13.07;;
16179;SDS011;8196;49.428;10.906;2022-08-19T12:00:07;13.90;;;12.10;;
16179;SDS011;8196;49.428;10.906;2022-08-19T12:02:35;14.48;;;12.95;;
16179;SDS011;8196;49.428;10.906;2022-08-19T12:05:02;13.25;;;12.05;;
16179;SDS011;8196;49.428;10.906;2022-08-19T12:07:34;13.80;;;12.35;;
16179;SDS011;8196;49.428;10.906;2022-08-19T12:10:01;12.82;;;11.63;;
16179;SDS011;8196;49.428;10.906;2022-08-19T12:12:28;12.40;;;11.15;;
16179;SDS011;8196;49.428;10.906;2022-08-19T12:14:56;12.57;;;11.25;;
16179;SDS011;8196;49.428;10.906;2022-08-19T12:17:26;12.00;;;10.80;;
16179;SDS011;8196;49.428;10.906;2022-08-19T12:19:54;12.43;;;11.13;;
16179;SDS011;8196;49.428;10.906;2022-08-19T12:22:21;11.32;;;10.18;;
16179;SDS011;8196;49.428;10.906;2022-08-19T12:24:48;12.30;;;11.13;;
16179;SDS011;8196;49.428;10.906;2022-08-19T12:27:17;12.32;;;11.13;;
16179;SDS011;8196;49.428;10.906;2022-08-19T12:30:05;12.50;;;11.30;;
16179;SDS011;8196;49.428;10.906;2022-08-19T12:32:32;12.10;;;11.02;;
16179;SDS011;8196;49.428;10.906;2022-08-19T12:34:59;14.48;;;13.07;;
16179;SDS011;8196;49.428;10.906;2022-08-19T12:37:27;14.52;;;13.13;;
16179;SDS011;8196;49.428;10.906;2022-08-19T12:39:54;15.95;;;14.25;;
16179;SDS011;8196;49.428;10.906;2022-08-19T12:42:21;17.80;;;15.38;;
16179;SDS011;8196;49.428;10.906;2022-08-19T12:44:48;16.65;;;15.05;;
16179;SDS011;8196;49.428;10.906;2022-08-19T12:49:44;18.75;;;16.85;;
16179;SDS011;8196;49.428;10.906;2022-08-19T12:52:21;20.33;;;18.15;;
16179;SDS011;8196;49.428;10.906;2022-08-19T12:54:49;20.73;;;18.73;;
16179;SDS011;8196;49.428;10.906;2022-08-19T12:57:20;23.58;;;19.80;;
16179;SDS011;8196;49.428;10.906;2022-08-19T12:59:51;24.27;;;20.02;;
16179;SDS011;8196;49.428;10.906;2022-08-19T13:02:20;23.88;;;20.88;;
16179;SDS011;8196;49.428;10.906;2022-08-19T13:04:48;24.55;;;22.00;;
16179;SDS011;8196;49.428;10.906;2022-08-19T13:07:15;26.50;;;23.17;;
16179;SDS011;8196;49.428;10.906;2022-08-19T13:09:42;24.55;;;21.88;;
16179;SDS011;8196;49.428;10.906;2022-08-19T13:12:10;25.27;;;22.63;;
16179;SDS011;8196;49.428;10.906;2022-08-19T13:14:39;25.38;;;22.50;;
16179;SDS011;8196;49.428;10.906;2022-08-19T13:17:07;26.30;;;23.45;;
16179;SDS011;8196;49.428;10.906;2022-08-19T13:19:36;24.50;;;21.90;;
16179;SDS011;8196;49.428;10.906;2022-08-19T13:22:03;27.65;;;24.67;;
16179;SDS011;8196;49.428;10.906;2022-08-19T13:24:40;28.02;;;24.00;;
16179;SDS011;8196;49.428;10.906;2022-08-19T13:27:12;24.73;;;22.02;;
16179;SDS011;8196;49.428;10.906;2022-08-19T13:29:40;28.75;;;23.33;;
16179;SDS011;8196;49.428;10.906;2022-08-19T13:32:33;28.92;;;23.48;;
16179;SDS011;8196;49.428;10.906;2022-08-19T13:35:20;28.40;;;24.50;;
16179;SDS011;8196;49.428;10.906;2022-08-19T13:37:47;26.75;;;23.90;;
16179;SDS011;8196;49.428;10.906;2022-08-19T13:40:16;29.02;;;25.35;;
16179;SDS011;8196;49.428;10.906;2022-08-19T13:42:45;29.98;;;25.33;;
16179;SDS011;8196;49.428;10.906;2022-08-19T13:45:14;30.65;;;24.48;;
16179;SDS011;8196;49.428;10.906;2022-08-19T13:47:42;32.05;;;27.05;;
16179;SDS011;8196;49.428;10.906;2022-08-19T13:50:12;31.02;;;27.45;;
16179;SDS011;8196;49.428;10.906;2022-08-19T13:52:40;29.88;;;26.08;;
16179;SDS011;8196;49.428;10.906;2022-08-19T13:55:08;28.52;;;25.42;;
16179;SDS011;8196;49.428;10.906;2022-08-19T13:57:36;26.05;;;23.02;;
16179;SDS011;8196;49.428;10.906;2022-08-19T14:00:07;24.27;;;21.42;;
16179;SDS011;8196;49.428;10.906;2022-08-19T14:02:37;26.30;;;22.35;;
16179;SDS011;8196;49.428;10.906;2022-08-19T14:05:05;19.30;;;17.30;;
16179;SDS011;8196;49.428;10.906;2022-08-19T14:07:33;22.42;;;20.02;;
16179;SDS011;8196;49.428;10.906;2022-08-19T14:10:00;20.52;;;18.25;;
16179;SDS011;8196;49.428;10.906;2022-08-19T14:12:27;22.60;;;17.83;;
16179;SDS011;8196;49.428;10.906;2022-08-19T14:14:54;18.33;;;14.43;;
16179;SDS011;8196;49.428;10.906;2022-08-19T14:17:21;15.50;;;13.35;;
16179;SDS011;8196;49.428;10.906;2022-08-19T14:19:48;19.30;;;13.63;;
16179;SDS011;8196;49.428;10.906;2022-08-19T14:22:15;17.52;;;13.55;;
16179;SDS011;8196;49.428;10.906;2022-08-19T14:24:47;16.10;;;13.20;;
16179;SDS011;8196;49.428;10.906;2022-08-19T14:27:16;17.77;;;13.27;;
16179;SDS011;8196;49.428;10.906;2022-08-19T14:29:43;14.82;;;12.82;;
16179;SDS011;8196;49.428;10.906;2022-08-19T14:32:10;13.55;;;11.18;;
16179;SDS011;8196;49.428;10.906;2022-08-19T14:34:42;16.63;;;11.27;;
16179;SDS011;8196;49.428;10.906;2022-08-19T14:37:12;14.27;;;11.35;;
16179;SDS011;8196;49.428;10.906;2022-08-19T14:39:40;17.70;;;10.43;;
16179;SDS011;8196;49.428;10.906;2022-08-19T14:42:08;17.67;;;10.73;;
16179;SDS011;8196;49.428;10.906;2022-08-19T14:44:36;14.90;;;10.20;;
16179;SDS011;8196;49.428;10.906;2022-08-19T14:47:04;14.27;;;9.98;;
16179;SDS011;8196;49.428;10.906;2022-08-19T14:49:35;12.02;;;9.68;;